createdAt,value
2018-12-02T00:00:05.581Z,5.50
2018-12-02T00:01:08.590Z,5.50
2018-12-02T00:02:08.587Z,5.50
2018-12-02T00:03:05.412Z,5.50
2018-12-02T00:04:05.465Z,5.50
2018-12-02T00:05:05.533Z,5.50
2018-12-02T00:06:05.507Z,5.50
2018-12-02T00:07:10.553Z,5.50
2018-12-02T00:08:08.592Z,5.50
2018-12-02T00:09:05.484Z,5.50
2018-12-02T00:10:05.083Z,5.50
2018-12-02T00:11:05.068Z,5.50
2018-12-02T00:12:08.581Z,5.60
2018-12-02T00:13:12.992Z,5.50
2018-12-02T00:14:04.819Z,5.50
2018-12-02T00:15:04.909Z,5.50
2018-12-02T00:16:04.925Z,5.60
2018-12-02T00:17:04.985Z,5.60
2018-12-02T00:18:08.574Z,5.60
2018-12-02T00:19:08.579Z,5.50
2018-12-02T00:20:05.530Z,5.50
2018-12-02T00:21:05.628Z,5.50
2018-12-02T00:22:08.585Z,5.60
2018-12-02T00:23:05.474Z,5.50
2018-12-02T00:24:05.596Z,5.60
2018-12-02T00:25:04.664Z,5.60
2018-12-02T00:26:08.606Z,5.60
2018-12-02T00:27:05.462Z,5.60
2018-12-02T00:28:05.419Z,5.60
2018-12-02T00:29:05.126Z,5.60
2018-12-02T00:30:05.199Z,5.60
2018-12-02T00:31:05.228Z,5.60
2018-12-02T00:32:05.249Z,5.60
2018-12-02T00:33:05.276Z,5.50
2018-12-02T00:34:05.209Z,5.60
2018-12-02T00:35:05.161Z,5.60
2018-12-02T00:36:05.248Z,5.60
2018-12-02T00:37:08.622Z,5.60
2018-12-02T00:38:05.493Z,5.60
2018-12-02T00:39:10.697Z,5.60
2018-12-02T00:40:05.610Z,5.60
2018-12-02T00:41:08.628Z,5.70
2018-12-02T00:42:05.527Z,5.60
2018-12-02T00:43:13.216Z,5.70
2018-12-02T00:44:05.091Z,5.60
2018-12-02T00:45:05.161Z,5.70
2018-12-02T00:46:05.269Z,5.70
2018-12-02T00:47:08.623Z,5.70
2018-12-02T00:48:05.582Z,5.70
2018-12-02T00:49:04.614Z,5.70
2018-12-02T00:50:05.565Z,5.70
2018-12-02T00:51:05.656Z,5.70
2018-12-02T00:52:04.761Z,5.70
2018-12-02T00:53:04.772Z,5.70
2018-12-02T00:54:08.614Z,5.70
2018-12-02T00:55:05.496Z,5.70
2018-12-02T00:56:08.623Z,5.70
2018-12-02T00:57:08.625Z,5.70
2018-12-02T00:58:05.493Z,5.70
2018-12-02T00:59:05.754Z,5.70
2018-12-02T01:00:08.650Z,5.70
2018-12-02T01:01:08.616Z,5.70
2018-12-02T01:02:08.647Z,5.70
2018-12-02T01:03:05.565Z,5.60
2018-12-02T01:04:05.602Z,5.70
2018-12-02T01:05:04.695Z,5.70
2018-12-02T01:06:04.770Z,5.70
2018-12-02T01:07:04.754Z,5.70
2018-12-02T01:08:04.708Z,5.70
2018-12-02T01:09:08.613Z,5.70
2018-12-02T01:10:10.662Z,5.70
2018-12-02T01:11:08.634Z,5.70
2018-12-02T01:12:08.645Z,5.70
2018-12-02T01:13:08.647Z,5.70
2018-12-02T01:14:10.556Z,5.70
2018-12-02T01:15:08.654Z,5.70
2018-12-02T01:16:08.668Z,5.70
2018-12-02T01:17:05.519Z,5.70
2018-12-02T01:18:08.666Z,5.70
2018-12-02T01:19:05.574Z,5.70
2018-12-02T01:20:05.694Z,5.70
2018-12-02T01:21:04.829Z,5.70
2018-12-02T01:22:04.889Z,5.70
2018-12-02T01:23:04.894Z,5.70
2018-12-02T01:24:04.979Z,5.70
2018-12-02T01:25:05.028Z,5.70
2018-12-02T01:26:08.686Z,5.70
2018-12-02T01:27:05.540Z,5.70
2018-12-02T01:28:08.656Z,5.70
2018-12-02T01:29:05.640Z,5.70
2018-12-02T01:30:04.912Z,5.70
2018-12-02T01:31:04.937Z,5.70
2018-12-02T01:32:08.663Z,5.60
2018-12-02T01:33:05.564Z,5.60
2018-12-02T01:34:05.718Z,5.60
2018-12-02T01:35:10.003Z,5.60
2018-12-02T01:36:04.870Z,5.60
2018-12-02T01:37:04.917Z,5.60
2018-12-02T01:38:08.704Z,5.60
2018-12-02T01:39:13.170Z,5.60
2018-12-02T01:40:05.039Z,5.60
2018-12-02T01:41:05.217Z,5.60
2018-12-02T01:42:05.425Z,5.60
2018-12-02T01:43:08.676Z,5.50
2018-12-02T01:44:04.766Z,5.50
2018-12-02T01:45:08.646Z,5.60
2018-12-02T01:46:08.692Z,5.60
2018-12-02T01:47:04.703Z,5.60
2018-12-02T01:48:08.981Z,5.60
2018-12-02T01:49:04.908Z,5.60
2018-12-02T01:50:04.901Z,5.60
2018-12-02T01:51:08.684Z,5.60
2018-12-02T01:52:05.528Z,5.60
2018-12-02T01:53:08.685Z,5.60
2018-12-02T01:54:08.706Z,5.60
2018-12-02T01:55:08.712Z,5.60
2018-12-02T01:56:12.299Z,5.60
2018-12-02T01:57:08.684Z,5.60
2018-12-02T01:58:08.690Z,5.60
2018-12-02T01:59:10.667Z,5.60
2018-12-02T02:00:05.741Z,5.60
2018-12-02T02:01:04.973Z,5.50
2018-12-02T02:02:08.719Z,5.60
2018-12-02T02:03:04.620Z,5.60
2018-12-02T02:04:05.595Z,5.50
2018-12-02T02:05:04.691Z,5.50
2018-12-02T02:06:08.711Z,5.50
2018-12-02T02:07:05.584Z,5.50
2018-12-02T02:08:05.557Z,5.60
2018-12-02T02:09:05.561Z,5.60
2018-12-02T02:10:05.555Z,5.50
2018-12-02T02:11:05.716Z,5.50
2018-12-02T02:12:04.923Z,5.50
2018-12-02T02:13:08.704Z,5.50
2018-12-02T02:14:05.598Z,5.60
2018-12-02T02:15:08.705Z,5.50
2018-12-02T02:16:05.569Z,5.50
2018-12-02T02:17:05.642Z,5.50
2018-12-02T02:18:04.777Z,5.50
2018-12-02T02:19:04.853Z,5.50
2018-12-02T02:20:04.827Z,5.50
2018-12-02T02:21:08.687Z,5.50
2018-12-02T02:22:05.627Z,5.50
2018-12-02T02:23:08.702Z,5.50
2018-12-02T02:24:04.659Z,5.50
2018-12-02T02:25:04.702Z,5.50
2018-12-02T02:26:04.665Z,5.50
2018-12-02T02:27:04.879Z,5.50
2018-12-02T02:28:04.958Z,5.40
2018-12-02T02:29:05.385Z,5.40
2018-12-02T02:30:05.476Z,5.40
2018-12-02T02:31:08.707Z,5.40
2018-12-02T02:32:05.610Z,5.40
2018-12-02T02:33:04.684Z,5.40
2018-12-02T02:34:09.032Z,5.40
2018-12-02T02:35:08.719Z,5.40
2018-12-02T02:36:05.611Z,5.30
2018-12-02T02:37:04.670Z,5.40
2018-12-02T02:38:08.748Z,5.40
2018-12-02T02:39:04.616Z,5.40
2018-12-02T02:40:04.698Z,5.40
2018-12-02T02:41:04.814Z,5.40
2018-12-02T02:42:08.756Z,5.30
2018-12-02T02:43:04.673Z,5.40
2018-12-02T02:44:08.760Z,5.40
2018-12-02T02:45:08.603Z,5.30
2018-12-02T02:46:05.460Z,5.30
2018-12-02T02:47:05.626Z,5.30
2018-12-02T02:48:04.733Z,5.30
2018-12-02T02:49:08.751Z,5.30
2018-12-02T02:50:08.739Z,5.30
2018-12-02T02:51:04.728Z,5.30
2018-12-02T02:52:08.808Z,5.20
2018-12-02T02:53:04.679Z,5.20
2018-12-02T02:54:08.766Z,5.20
2018-12-02T02:55:08.733Z,5.20
2018-12-02T02:56:05.560Z,5.20
2018-12-02T02:57:05.531Z,5.20
2018-12-02T02:58:05.469Z,5.20
2018-12-02T02:59:05.595Z,5.20
2018-12-02T03:00:04.693Z,5.10
2018-12-02T03:01:04.718Z,5.20
2018-12-02T03:02:08.755Z,5.20
2018-12-02T03:03:05.597Z,5.10
2018-12-02T03:04:05.594Z,5.10
2018-12-02T03:05:05.639Z,5.10
2018-12-02T03:06:08.764Z,5.10
2018-12-02T03:07:08.743Z,5.10
2018-12-02T03:08:08.755Z,5.10
2018-12-02T03:09:04.700Z,5.10
2018-12-02T03:10:08.770Z,5.10
2018-12-02T03:11:04.686Z,5.10
2018-12-02T03:12:04.824Z,5.10
2018-12-02T03:13:05.084Z,5.10
2018-12-02T03:14:08.782Z,5.10
2018-12-02T03:15:08.608Z,5.10
2018-12-02T03:16:13.186Z,5.00
2018-12-02T03:17:08.768Z,5.10
2018-12-02T03:18:08.760Z,5.10
2018-12-02T03:19:08.602Z,5.10
2018-12-02T03:20:05.524Z,5.10
2018-12-02T03:21:08.754Z,5.10
2018-12-02T03:22:04.714Z,5.10
2018-12-02T03:23:04.832Z,5.00
2018-12-02T03:24:09.884Z,5.00
2018-12-02T03:25:09.806Z,5.00
2018-12-02T03:26:04.719Z,5.00
2018-12-02T03:27:08.763Z,5.00
2018-12-02T03:28:04.603Z,5.00
2018-12-02T03:29:04.705Z,5.00
2018-12-02T03:30:04.719Z,5.00
2018-12-02T03:31:04.740Z,5.00
2018-12-02T03:32:04.871Z,5.00
2018-12-02T03:33:04.922Z,4.90
2018-12-02T03:34:04.944Z,5.00
2018-12-02T03:35:08.811Z,5.00
2018-12-02T03:36:04.666Z,5.00
2018-12-02T03:37:09.704Z,5.00
2018-12-02T03:38:04.608Z,5.00
2018-12-02T03:39:08.642Z,5.00
2018-12-02T03:40:08.800Z,4.90
2018-12-02T03:41:04.673Z,5.00
2018-12-02T03:42:04.801Z,5.10
2018-12-02T03:43:08.808Z,5.10
2018-12-02T03:44:08.825Z,5.10
2018-12-02T03:45:08.819Z,5.10
2018-12-02T03:46:04.693Z,5.10
2018-12-02T03:47:08.806Z,5.10
2018-12-02T03:48:04.654Z,5.10
2018-12-02T03:49:08.658Z,5.10
2018-12-02T03:50:05.547Z,5.10
2018-12-02T03:51:05.567Z,5.10
2018-12-02T03:52:05.639Z,5.10
2018-12-02T03:53:08.821Z,5.10
2018-12-02T03:54:04.821Z,5.10
2018-12-02T03:55:04.827Z,5.10
2018-12-02T03:56:04.878Z,5.20
2018-12-02T03:57:04.859Z,5.20
2018-12-02T03:58:04.966Z,5.10
2018-12-02T03:59:05.080Z,5.10
2018-12-02T04:00:08.824Z,5.20
2018-12-02T04:01:04.705Z,5.10
2018-12-02T04:02:04.695Z,5.20
2018-12-02T04:03:08.686Z,5.20
2018-12-02T04:04:05.726Z,5.20
2018-12-02T04:05:04.815Z,5.20
2018-12-02T04:06:08.829Z,5.20
2018-12-02T04:07:04.701Z,5.20
2018-12-02T04:08:04.760Z,5.20
2018-12-02T04:09:08.798Z,5.20
2018-12-02T04:10:04.691Z,5.20
2018-12-02T04:11:04.776Z,5.20
2018-12-02T04:12:04.803Z,5.20
2018-12-02T04:13:08.843Z,5.20
2018-12-02T04:14:04.791Z,5.30
2018-12-02T04:15:08.811Z,5.30
2018-12-02T04:16:12.279Z,5.30
2018-12-02T04:17:05.130Z,5.20
2018-12-02T04:18:05.098Z,5.30
2018-12-02T04:19:05.125Z,5.30
2018-12-02T04:20:08.826Z,5.30
2018-12-02T04:21:04.676Z,5.20
2018-12-02T04:22:08.689Z,5.30
2018-12-02T04:23:08.850Z,5.30
2018-12-02T04:24:08.866Z,5.30
2018-12-02T04:25:08.860Z,5.30
2018-12-02T04:26:04.763Z,5.30
2018-12-02T04:27:04.823Z,5.30
2018-12-02T04:28:04.823Z,5.30
2018-12-02T04:29:05.293Z,5.30
2018-12-02T04:30:08.858Z,5.40
2018-12-02T04:31:04.785Z,5.40
2018-12-02T04:32:04.734Z,5.40
2018-12-02T04:33:04.809Z,5.40
2018-12-02T04:34:04.797Z,5.40
2018-12-02T04:35:04.881Z,5.50
2018-12-02T04:36:04.920Z,5.40
2018-12-02T04:37:08.862Z,5.50
2018-12-02T04:38:04.742Z,5.50
2018-12-02T04:39:04.798Z,5.50
2018-12-02T04:40:04.872Z,5.50
2018-12-02T04:41:04.986Z,5.50
2018-12-02T04:42:08.871Z,5.60
2018-12-02T04:43:08.710Z,5.50
2018-12-02T04:44:10.805Z,5.50
2018-12-02T04:45:08.716Z,5.60
2018-12-02T04:46:04.662Z,5.60
2018-12-02T04:47:08.856Z,5.60
2018-12-02T04:48:04.857Z,5.60
2018-12-02T04:49:12.789Z,5.60
2018-12-02T04:50:04.696Z,5.60
2018-12-02T04:51:08.883Z,5.60
2018-12-02T04:52:04.798Z,5.60
2018-12-02T04:53:12.512Z,5.60
2018-12-02T04:54:05.456Z,5.60
2018-12-02T04:55:08.866Z,5.60
2018-12-02T04:56:04.730Z,5.70
2018-12-02T04:57:04.758Z,5.70
2018-12-02T04:58:08.890Z,5.70
2018-12-02T04:59:08.875Z,5.70
2018-12-02T05:00:04.798Z,5.70
2018-12-02T05:01:04.874Z,5.70
2018-12-02T05:02:04.877Z,5.70
2018-12-02T05:03:08.870Z,5.70
2018-12-02T05:04:04.819Z,5.70
2018-12-02T05:05:08.888Z,5.70
2018-12-02T05:06:04.849Z,5.70
2018-12-02T05:07:08.893Z,5.70
2018-12-02T05:08:04.863Z,5.70
2018-12-02T05:09:05.041Z,5.70
2018-12-02T05:10:05.173Z,5.70
2018-12-02T05:11:08.880Z,5.70
2018-12-02T05:12:04.836Z,5.80
2018-12-02T05:13:04.895Z,5.70
2018-12-02T05:14:04.937Z,5.80
2018-12-02T05:15:04.949Z,5.80
2018-12-02T05:16:05.114Z,5.80
2018-12-02T05:17:05.255Z,5.70
2018-12-02T05:18:05.217Z,5.80
2018-12-02T05:19:05.399Z,5.80
2018-12-02T05:20:05.454Z,5.70
2018-12-02T05:21:05.590Z,5.70
2018-12-02T05:22:04.623Z,5.80
2018-12-02T05:23:08.706Z,5.80
2018-12-02T05:24:10.737Z,5.80
2018-12-02T05:25:06.015Z,5.80
2018-12-02T05:26:08.930Z,5.70
2018-12-02T05:27:04.921Z,5.70
2018-12-02T05:28:04.936Z,5.70
2018-12-02T05:29:08.901Z,5.70
2018-12-02T05:30:04.755Z,5.70
2018-12-02T05:31:04.914Z,5.70
2018-12-02T05:32:05.030Z,5.80
2018-12-02T05:33:10.232Z,5.70
2018-12-02T05:34:05.186Z,5.70
2018-12-02T05:35:05.260Z,5.70
2018-12-02T05:36:05.238Z,5.70
2018-12-02T05:37:05.262Z,5.70
2018-12-02T05:38:05.379Z,5.70
2018-12-02T05:39:05.481Z,5.70
2018-12-02T05:40:09.259Z,5.70
2018-12-02T05:41:18.352Z,5.70
2018-12-02T05:42:08.933Z,5.70
2018-12-02T05:43:04.874Z,5.70
2018-12-02T05:44:08.946Z,5.70
2018-12-02T05:45:04.788Z,5.70
2018-12-02T05:46:04.876Z,5.70
2018-12-02T05:47:06.089Z,5.70
2018-12-02T05:48:04.971Z,5.70
2018-12-02T05:49:08.939Z,5.70
2018-12-02T05:50:05.017Z,5.70
2018-12-02T05:51:05.064Z,5.70
2018-12-02T05:52:05.023Z,1.70
2018-12-02T05:53:05.060Z,5.70
2018-12-02T05:54:05.159Z,5.70
2018-12-02T05:55:05.215Z,5.70
2018-12-02T05:56:05.236Z,5.70
2018-12-02T05:57:08.952Z,5.70
2018-12-02T05:58:04.938Z,5.70
2018-12-02T05:59:08.949Z,5.70
2018-12-02T06:00:08.939Z,5.70
2018-12-02T06:01:04.905Z,5.70
2018-12-02T06:02:05.003Z,5.70
2018-12-02T06:03:08.955Z,5.70
2018-12-02T06:04:08.966Z,5.70
2018-12-02T06:05:04.809Z,5.70
2018-12-02T06:06:04.918Z,5.70
2018-12-02T06:07:04.992Z,5.70
2018-12-02T06:08:08.945Z,5.70
2018-12-02T06:09:04.966Z,5.70
2018-12-02T06:10:04.991Z,5.70
2018-12-02T06:11:08.934Z,5.60
2018-12-02T06:12:04.899Z,5.70
2018-12-02T06:13:15.089Z,5.60
2018-12-02T06:14:04.982Z,5.60
2018-12-02T06:15:08.944Z,5.60
2018-12-02T06:16:08.973Z,5.60
2018-12-02T06:17:09.987Z,5.60
2018-12-02T06:18:05.156Z,5.60
2018-12-02T06:19:08.940Z,5.60
2018-12-02T06:20:04.992Z,5.60
2018-12-02T06:21:10.066Z,5.60
2018-12-02T06:22:04.887Z,5.60
2018-12-02T06:23:04.883Z,5.60
2018-12-02T06:24:04.855Z,5.60
2018-12-02T06:25:12.562Z,5.60
2018-12-02T06:26:05.432Z,5.60
2018-12-02T06:27:05.600Z,5.60
2018-12-02T06:28:04.689Z,5.60
2018-12-02T06:29:08.965Z,5.60
2018-12-02T06:30:04.898Z,5.60
2018-12-02T06:31:04.940Z,5.60
2018-12-02T06:32:04.906Z,5.60
2018-12-02T06:33:04.944Z,5.60
2018-12-02T06:34:05.002Z,5.60
2018-12-02T06:35:05.150Z,5.60
2018-12-02T06:36:05.236Z,5.60
2018-12-02T06:37:05.259Z,5.60
2018-12-02T06:38:05.276Z,5.60
2018-12-02T06:39:05.314Z,5.60
2018-12-02T06:40:05.301Z,5.70
2018-12-02T06:41:09.013Z,5.70
2018-12-02T06:42:04.988Z,5.70
2018-12-02T06:43:09.009Z,5.70
2018-12-02T06:44:04.976Z,5.70
2018-12-02T06:45:05.077Z,5.70
2018-12-02T06:46:10.311Z,5.80
2018-12-02T06:47:08.989Z,5.80
2018-12-02T06:48:09.003Z,5.80
2018-12-02T06:49:10.207Z,5.70
2018-12-02T06:50:05.118Z,5.80
2018-12-02T06:51:10.223Z,5.80
2018-12-02T06:52:10.275Z,5.80
2018-12-02T06:53:05.524Z,5.80
2018-12-02T06:54:08.965Z,5.80
2018-12-02T06:55:04.874Z,5.80
2018-12-02T06:56:09.001Z,5.90
2018-12-02T06:57:04.954Z,5.90
2018-12-02T06:58:04.960Z,5.90
2018-12-02T06:59:04.983Z,5.90
2018-12-02T07:00:05.163Z,5.90
2018-12-02T07:01:09.022Z,5.90
2018-12-02T07:02:04.968Z,5.90
2018-12-02T07:03:05.110Z,5.90
2018-12-02T07:04:05.366Z,5.90
2018-12-02T07:05:09.002Z,5.90
2018-12-02T07:06:04.949Z,5.90
2018-12-02T07:07:08.823Z,6.00
2018-12-02T07:08:08.853Z,6.00
2018-12-02T07:09:04.782Z,5.90
2018-12-02T07:10:04.824Z,6.00
2018-12-02T07:11:04.977Z,5.90
2018-12-02T07:12:05.095Z,6.00
2018-12-02T07:13:05.213Z,6.00
2018-12-02T07:14:05.416Z,6.00
2018-12-02T07:15:08.977Z,6.00
2018-12-02T07:16:09.010Z,6.00
2018-12-02T07:17:09.005Z,6.00
2018-12-02T07:18:05.044Z,6.00
2018-12-02T07:19:08.998Z,6.00
2018-12-02T07:20:04.918Z,6.00
2018-12-02T07:21:08.995Z,6.00
2018-12-02T07:22:04.872Z,6.00
2018-12-02T07:23:05.014Z,6.00
2018-12-02T07:24:05.161Z,6.00
2018-12-02T07:25:05.488Z,6.00
2018-12-02T07:26:05.628Z,6.00
2018-12-02T07:27:04.724Z,6.00
2018-12-02T07:28:04.913Z,6.00
2018-12-02T07:29:04.812Z,6.00
2018-12-02T07:30:04.812Z,6.00
2018-12-02T07:31:08.817Z,6.00
2018-12-02T07:32:04.804Z,6.00
2018-12-02T07:33:04.776Z,6.00
2018-12-02T07:34:04.881Z,6.10
2018-12-02T07:35:08.869Z,6.00
2018-12-02T07:36:04.738Z,6.10
2018-12-02T07:37:04.736Z,6.10
2018-12-02T07:38:09.795Z,6.10
2018-12-02T07:39:08.833Z,6.10
2018-12-02T07:40:08.822Z,6.10
2018-12-02T07:41:08.839Z,6.10
2018-12-02T07:42:04.915Z,6.10
2018-12-02T07:43:04.962Z,6.10
2018-12-02T07:44:04.921Z,6.10
2018-12-02T07:45:10.131Z,6.10
2018-12-02T07:46:04.960Z,6.10
2018-12-02T07:47:09.034Z,6.20
2018-12-02T07:48:04.875Z,6.20
2018-12-02T07:49:10.481Z,6.20
2018-12-02T07:50:05.353Z,6.20
2018-12-02T07:51:13.137Z,6.20
2018-12-02T07:52:04.974Z,6.20
2018-12-02T07:53:05.021Z,6.20
2018-12-02T07:54:04.999Z,6.20
2018-12-02T07:55:05.068Z,6.20
2018-12-02T07:56:05.038Z,6.20
2018-12-02T07:57:05.050Z,6.20
2018-12-02T07:58:09.072Z,6.20
2018-12-02T07:59:05.059Z,6.20
2018-12-02T08:00:05.078Z,6.20
2018-12-02T08:01:05.067Z,6.20
2018-12-02T08:02:15.201Z,6.20
2018-12-02T08:03:05.058Z,6.20
2018-12-02T08:04:12.788Z,6.20
2018-12-02T08:05:04.739Z,6.30
2018-12-02T08:06:04.800Z,6.30
2018-12-02T08:07:04.851Z,6.30
2018-12-02T08:08:05.037Z,6.30
2018-12-02T08:09:10.297Z,6.30
2018-12-02T08:10:09.060Z,6.30
2018-12-02T08:11:05.013Z,6.30
2018-12-02T08:12:05.153Z,6.30
2018-12-02T08:13:09.070Z,6.30
2018-12-02T08:14:05.037Z,6.30
2018-12-02T08:15:05.133Z,6.30
2018-12-02T08:16:05.107Z,6.30
2018-12-02T08:17:05.129Z,6.30
2018-12-02T08:18:10.295Z,6.30
2018-12-02T08:19:05.215Z,6.30
2018-12-02T08:20:09.075Z,6.30
2018-12-02T08:21:09.101Z,6.30
2018-12-02T08:22:15.337Z,6.20
2018-12-02T08:23:10.359Z,6.30
2018-12-02T08:24:09.065Z,6.30
2018-12-02T08:25:05.061Z,6.30
2018-12-02T08:26:10.190Z,6.30
2018-12-02T08:27:09.061Z,6.30
2018-12-02T08:28:09.104Z,6.30
2018-12-02T08:29:09.103Z,6.30
2018-12-02T08:30:08.917Z,6.30
2018-12-02T08:31:04.885Z,6.30
2018-12-02T08:32:04.956Z,6.30
2018-12-02T08:33:04.986Z,6.30
2018-12-02T08:34:09.083Z,6.30
2018-12-02T08:35:04.952Z,6.30
2018-12-02T08:36:05.040Z,6.30
2018-12-02T08:37:05.381Z,6.30
2018-12-02T08:38:10.446Z,6.30
2018-12-02T08:39:05.367Z,6.30
2018-12-02T08:40:15.518Z,6.30
2018-12-02T08:41:05.380Z,6.30
2018-12-02T08:42:05.539Z,6.30
2018-12-02T08:43:07.214Z,6.30
2018-12-02T08:44:04.765Z,6.30
2018-12-02T08:45:04.813Z,6.30
2018-12-02T08:46:08.929Z,6.30
2018-12-02T08:47:04.836Z,6.30
2018-12-02T08:48:10.041Z,6.40
2018-12-02T08:49:05.041Z,6.30
2018-12-02T08:50:09.065Z,6.40
2018-12-02T08:51:04.938Z,6.30
2018-12-02T08:52:08.940Z,6.40
2018-12-02T08:53:04.871Z,6.40
2018-12-02T08:54:10.119Z,6.40
2018-12-02T08:55:05.053Z,6.40
2018-12-02T08:56:05.087Z,6.40
2018-12-02T08:57:10.240Z,6.40
2018-12-02T08:58:09.087Z,6.40
2018-12-02T08:59:09.099Z,6.40
2018-12-02T09:00:09.072Z,6.40
2018-12-02T09:01:08.946Z,6.40
2018-12-02T09:02:04.834Z,6.40
2018-12-02T09:03:04.885Z,6.40
2018-12-02T09:04:04.960Z,6.40
2018-12-02T09:05:09.127Z,6.40
2018-12-02T09:06:12.732Z,6.40
2018-12-02T09:07:07.251Z,6.40
2018-12-02T09:08:04.766Z,6.40
2018-12-02T09:09:08.907Z,6.40
2018-12-02T09:10:05.001Z,6.40
2018-12-02T09:11:05.207Z,6.40
2018-12-02T09:12:05.359Z,6.40
2018-12-02T09:13:05.632Z,6.40
2018-12-02T09:14:04.706Z,6.40
2018-12-02T09:15:04.850Z,6.50
2018-12-02T09:16:05.000Z,6.40
2018-12-02T09:17:05.302Z,6.40
2018-12-02T09:18:05.434Z,6.50
2018-12-02T09:19:05.520Z,6.40
2018-12-02T09:20:05.584Z,6.40
2018-12-02T09:21:05.695Z,6.40
2018-12-02T09:22:08.952Z,6.40
2018-12-02T09:23:05.088Z,6.40
2018-12-02T09:24:05.318Z,6.50
2018-12-02T09:25:05.447Z,6.50
2018-12-02T09:26:09.162Z,6.40
2018-12-02T09:27:10.274Z,6.40
2018-12-02T09:28:05.216Z,6.40
2018-12-02T09:29:05.307Z,6.40
2018-12-02T09:30:05.360Z,6.40
2018-12-02T09:31:09.142Z,6.40
2018-12-02T09:32:05.200Z,6.40
2018-12-02T09:33:09.137Z,6.40
2018-12-02T09:34:05.101Z,6.40
2018-12-02T09:35:05.270Z,6.40
2018-12-02T09:36:09.137Z,6.50
2018-12-02T09:37:04.982Z,6.40
2018-12-02T09:38:04.988Z,6.50
2018-12-02T09:39:05.017Z,6.50
2018-12-02T09:40:05.121Z,6.40
2018-12-02T09:41:10.361Z,6.40
2018-12-02T09:42:09.150Z,6.50
2018-12-02T09:43:05.115Z,6.40
2018-12-02T09:44:05.081Z,6.40
2018-12-02T09:45:09.160Z,6.40
2018-12-02T09:46:05.071Z,6.40
2018-12-02T09:47:05.134Z,6.40
2018-12-02T09:48:05.179Z,6.40
2018-12-02T09:49:09.149Z,6.40
2018-12-02T09:50:05.016Z,6.40
2018-12-02T09:51:09.140Z,6.50
2018-12-02T09:52:09.007Z,6.50
2018-12-02T09:53:08.903Z,6.50
2018-12-02T09:54:04.952Z,6.40
2018-12-02T09:55:04.973Z,6.40
2018-12-02T09:56:10.067Z,6.50
2018-12-02T09:57:10.072Z,6.50
2018-12-02T09:58:04.987Z,6.50
2018-12-02T09:59:05.135Z,6.50
2018-12-02T10:00:05.310Z,6.50
2018-12-02T10:01:09.140Z,6.50
2018-12-02T10:02:05.270Z,6.50
2018-12-02T10:03:09.136Z,6.60
2018-12-02T10:04:04.996Z,6.50
2018-12-02T10:05:15.119Z,6.60
2018-12-02T10:06:08.991Z,6.60
2018-12-02T10:07:10.063Z,6.60
2018-12-02T10:08:04.974Z,6.60
2018-12-02T10:09:04.984Z,6.60
2018-12-02T10:10:04.968Z,6.60
2018-12-02T10:11:09.190Z,6.60
2018-12-02T10:12:05.078Z,6.60
2018-12-02T10:13:05.251Z,6.70
2018-12-02T10:14:05.289Z,6.70
2018-12-02T10:15:05.298Z,6.70
2018-12-02T10:16:05.348Z,6.70
2018-12-02T10:17:05.390Z,6.70
2018-12-02T10:18:05.449Z,6.70
2018-12-02T10:19:05.477Z,6.70
2018-12-02T10:20:05.491Z,6.70
2018-12-02T10:21:05.572Z,6.80
2018-12-02T10:22:05.662Z,6.80
2018-12-02T10:23:07.219Z,6.80
2018-12-02T10:24:04.672Z,6.80
2018-12-02T10:25:07.281Z,6.80
2018-12-02T10:26:04.630Z,6.80
2018-12-02T10:27:04.780Z,6.80
2018-12-02T10:28:04.881Z,6.90
2018-12-02T10:29:06.349Z,6.90
2018-12-02T10:30:05.453Z,6.90
2018-12-02T10:31:09.186Z,6.90
2018-12-02T10:32:05.084Z,6.90
2018-12-02T10:33:05.093Z,7.00
2018-12-02T10:34:05.199Z,7.00
2018-12-02T10:35:05.249Z,7.00
2018-12-02T10:36:05.476Z,7.00
2018-12-02T10:37:05.558Z,7.00
2018-12-02T10:38:07.343Z,7.10
2018-12-02T10:39:07.347Z,7.10
2018-12-02T10:40:04.909Z,7.00
2018-12-02T10:41:04.940Z,7.10
2018-12-02T10:42:05.002Z,7.10
2018-12-02T10:43:09.053Z,7.10
2018-12-02T10:44:04.986Z,7.10
2018-12-02T10:45:05.112Z,7.10
2018-12-02T10:46:05.598Z,7.10
2018-12-02T10:47:07.347Z,7.10
2018-12-02T10:48:09.213Z,7.10
2018-12-02T10:49:08.973Z,7.10
2018-12-02T10:50:04.997Z,7.20
2018-12-02T10:51:09.083Z,7.20
2018-12-02T10:52:04.989Z,7.20
2018-12-02T10:53:09.086Z,7.20
2018-12-02T10:54:04.994Z,7.20
2018-12-02T10:55:05.318Z,7.20
2018-12-02T10:56:05.541Z,7.20
2018-12-02T10:57:07.160Z,7.20
2018-12-02T10:58:05.613Z,7.20
2018-12-02T10:59:04.686Z,7.20
2018-12-02T11:00:04.771Z,7.20
2018-12-02T11:01:04.777Z,7.20
2018-12-02T11:02:04.961Z,7.20
2018-12-02T11:03:04.946Z,7.20
2018-12-02T11:04:08.958Z,7.20
2018-12-02T11:05:04.882Z,7.20
2018-12-02T11:06:09.045Z,7.20
2018-12-02T11:07:09.063Z,7.20
2018-12-02T11:08:09.224Z,7.20
2018-12-02T11:09:05.216Z,7.30
2018-12-02T11:10:05.275Z,7.30
2018-12-02T11:11:09.233Z,7.20
2018-12-02T11:12:05.156Z,7.20
2018-12-02T11:13:09.243Z,7.30
2018-12-02T11:14:05.154Z,7.30
2018-12-02T11:15:05.196Z,7.30
2018-12-02T11:16:05.251Z,7.30
2018-12-02T11:17:05.438Z,7.30
2018-12-02T11:18:05.441Z,7.30
2018-12-02T11:19:09.245Z,7.30
2018-12-02T11:20:05.387Z,7.30
2018-12-02T11:21:09.266Z,7.30
2018-12-02T11:22:05.194Z,7.30
2018-12-02T11:23:05.175Z,7.30
2018-12-02T11:24:09.245Z,7.30
2018-12-02T11:25:05.136Z,7.30
2018-12-02T11:26:05.270Z,7.30
2018-12-02T11:27:09.277Z,7.30
2018-12-02T11:28:05.237Z,7.40
2018-12-02T11:29:09.253Z,7.40
2018-12-02T11:30:05.224Z,7.40
2018-12-02T11:31:05.426Z,7.40
2018-12-02T11:32:05.446Z,7.40
2018-12-02T11:33:10.694Z,7.20
2018-12-02T11:34:09.268Z,7.40
2018-12-02T11:35:09.306Z,7.40
2018-12-02T11:36:05.191Z,7.40
2018-12-02T11:37:05.192Z,7.50
2018-12-02T11:38:05.358Z,7.40
2018-12-02T11:39:05.778Z,7.40
2018-12-02T11:40:04.907Z,7.40
2018-12-02T11:41:09.082Z,7.50
2018-12-02T11:42:05.018Z,7.50
2018-12-02T11:43:05.169Z,7.50
2018-12-02T11:44:09.287Z,7.50
2018-12-02T11:45:05.132Z,7.50
2018-12-02T11:46:05.181Z,7.50
2018-12-02T11:47:05.391Z,7.50
2018-12-02T11:48:09.270Z,7.50
2018-12-02T11:49:09.694Z,7.60
2018-12-02T11:50:04.845Z,7.60
2018-12-02T11:51:05.147Z,7.60
2018-12-02T11:52:05.244Z,7.60
2018-12-02T11:53:06.018Z,7.60
2018-12-02T11:54:04.895Z,7.70
2018-12-02T11:55:05.035Z,7.70
2018-12-02T11:56:04.939Z,7.70
2018-12-02T11:57:06.537Z,7.70
2018-12-02T11:58:04.633Z,7.70
2018-12-02T11:59:04.650Z,7.70
2018-12-02T12:00:05.352Z,7.70
2018-12-02T12:01:05.549Z,7.80
2018-12-02T12:02:07.601Z,7.80
2018-12-02T12:03:05.060Z,7.80
2018-12-02T12:04:05.131Z,7.80
2018-12-02T12:05:05.227Z,7.80
2018-12-02T12:06:05.388Z,7.80
2018-12-02T12:07:09.294Z,7.90
2018-12-02T12:08:05.391Z,7.80
2018-12-02T12:09:05.444Z,7.90
2018-12-02T12:10:09.298Z,7.90
2018-12-02T12:11:05.169Z,7.90
2018-12-02T12:12:09.318Z,8.00
2018-12-02T12:13:05.260Z,7.90
2018-12-02T12:14:09.281Z,7.90
2018-12-02T12:15:05.302Z,8.00
2018-12-02T12:16:09.315Z,8.00
2018-12-02T12:17:05.336Z,7.90
2018-12-02T12:18:05.468Z,8.00
2018-12-02T12:19:05.498Z,8.00
2018-12-02T12:20:05.511Z,8.00
2018-12-02T12:21:05.750Z,8.00
2018-12-02T12:22:04.991Z,8.00
2018-12-02T12:23:09.136Z,8.10
2018-12-02T12:24:09.316Z,8.10
2018-12-02T12:25:09.288Z,8.10
2018-12-02T12:26:09.323Z,8.10
2018-12-02T12:27:09.310Z,8.10
2018-12-02T12:28:09.305Z,8.10
2018-12-02T12:29:05.348Z,8.10
2018-12-02T12:30:05.446Z,8.10
2018-12-02T12:31:05.739Z,8.10
2018-12-02T12:32:04.894Z,8.10
2018-12-02T12:33:09.108Z,8.10
2018-12-02T12:34:09.321Z,8.10
2018-12-02T12:35:12.969Z,8.10
2018-12-02T12:36:09.117Z,8.10
2018-12-02T12:37:09.114Z,8.10
2018-12-02T12:38:09.140Z,8.10
2018-12-02T12:39:10.297Z,8.10
2018-12-02T12:40:09.337Z,8.10
2018-12-02T12:41:05.560Z,8.20
2018-12-02T12:42:11.135Z,8.10
2018-12-02T12:43:13.116Z,8.10
2018-12-02T12:44:08.132Z,8.20
2018-12-02T12:45:05.359Z,8.20
2018-12-02T12:46:08.616Z,8.10
2018-12-02T12:47:06.022Z,8.10
2018-12-02T12:48:08.421Z,8.10
2018-12-02T12:49:05.620Z,8.10
2018-12-02T12:50:10.381Z,8.10
2018-12-02T12:51:08.323Z,8.10
2018-12-02T12:52:05.670Z,8.20
2018-12-02T12:53:05.021Z,8.10
2018-12-02T12:54:09.178Z,8.20
2018-12-02T12:55:05.166Z,8.10
2018-12-02T12:56:05.197Z,8.10
2018-12-02T12:57:05.292Z,8.20
2018-12-02T12:58:05.346Z,8.10
2018-12-02T12:59:05.618Z,8.20
2018-12-02T13:00:04.653Z,8.10
2018-12-02T13:01:07.284Z,8.10
2018-12-02T13:02:04.754Z,8.10
2018-12-02T13:03:07.526Z,8.10
2018-12-02T13:04:05.246Z,8.10
2018-12-02T13:05:05.454Z,8.10
2018-12-02T13:06:05.516Z,8.20
2018-12-02T13:07:05.662Z,8.10
2018-12-02T13:08:04.687Z,8.10
2018-12-02T13:09:04.755Z,8.20
2018-12-02T13:10:04.815Z,8.10
2018-12-02T13:11:05.003Z,8.20
2018-12-02T13:12:09.337Z,8.20
2018-12-02T13:13:09.337Z,8.20
2018-12-02T13:14:09.363Z,8.20
2018-12-02T13:15:10.343Z,8.10
2018-12-02T13:16:05.294Z,8.10
2018-12-02T13:17:09.356Z,8.20
2018-12-02T13:18:05.235Z,8.20